sensor_id;sensor_type;location;lat;lon;timestamp;P1;durP1;ratioP1;P2;durP2;ratioP2
34433;SDS011;34290;48.562;13.384;2022-10-16T00:01:05;13.05;;;5.63;;
34433;SDS011;34290;48.562;13.384;2022-10-16T00:03:33;13.95;;;5.50;;
34433;SDS011;34290;48.562;13.384;2022-10-16T00:06:01;406.35;;;17.50;;
34433;SDS011;34290;48.562;13.384;2022-10-16T00:08:29;17.35;;;5.78;;
34433;SDS011;34290;48.562;13.384;2022-10-16T00:11:00;16.42;;;5.38;;
34433;SDS011;34290;48.562;13.384;2022-10-16T00:13:29;9.40;;;4.63;;
34433;SDS011;34290;48.562;13.384;2022-10-16T00:15:56;37.90;;;5.22;;
34433;SDS011;34290;48.562;13.384;2022-10-16T00:18:24;137.85;;;8.80;;
34433;SDS011;34290;48.562;13.384;2022-10-16T00:20:52;15.68;;;4.35;;
34433;SDS011;34290;48.562;13.384;2022-10-16T00:23:19;16.63;;;5.13;;
34433;SDS011;34290;48.562;13.384;2022-10-16T00:25:55;86.15;;;8.13;;
34433;SDS011;34290;48.562;13.384;2022-10-16T00:28:22;35.17;;;6.35;;
34433;SDS011;34290;48.562;13.384;2022-10-16T00:30:49;40.88;;;6.88;;
34433;SDS011;34290;48.562;13.384;2022-10-16T00:33:16;25.23;;;6.60;;
34433;SDS011;34290;48.562;13.384;2022-10-16T00:35:43;24.23;;;6.57;;
34433;SDS011;34290;48.562;13.384;2022-10-16T00:38:10;13.73;;;6.13;;
34433;SDS011;34290;48.562;13.384;2022-10-16T00:40:37;42.03;;;9.07;;
34433;SDS011;34290;48.562;13.384;2022-10-16T00:43:08;15.65;;;5.15;;
34433;SDS011;34290;48.562;13.384;2022-10-16T00:45:40;19.67;;;4.47;;
34433;SDS011;34290;48.562;13.384;2022-10-16T00:48:08;13.27;;;3.60;;
34433;SDS011;34290;48.562;13.384;2022-10-16T00:50:39;8.93;;;3.00;;
34433;SDS011;34290;48.562;13.384;2022-10-16T00:53:09;27.60;;;4.28;;
34433;SDS011;34290;48.562;13.384;2022-10-16T00:55:38;47.40;;;6.50;;
34433;SDS011;34290;48.562;13.384;2022-10-16T00:58:05;48.03;;;5.20;;
34433;SDS011;34290;48.562;13.384;2022-10-16T01:00:33;42.90;;;7.35;;
34433;SDS011;34290;48.562;13.384;2022-10-16T01:03:01;39.78;;;4.90;;
34433;SDS011;34290;48.562;13.384;2022-10-16T01:05:30;11.32;;;4.75;;
34433;SDS011;34290;48.562;13.384;2022-10-16T01:08:03;13.88;;;4.43;;
34433;SDS011;34290;48.562;13.384;2022-10-16T01:10:35;20.02;;;5.95;;
34433;SDS011;34290;48.562;13.384;2022-10-16T01:13:09;24.10;;;6.20;;
34433;SDS011;34290;48.562;13.384;2022-10-16T01:15:42;16.80;;;6.25;;
34433;SDS011;34290;48.562;13.384;2022-10-16T01:18:15;11.88;;;5.47;;
34433;SDS011;34290;48.562;13.384;2022-10-16T01:20:47;12.85;;;5.07;;
34433;SDS011;34290;48.562;13.384;2022-10-16T01:23:21;22.88;;;5.95;;
34433;SDS011;34290;48.562;13.384;2022-10-16T01:26:04;36.13;;;5.88;;
34433;SDS011;34290;48.562;13.384;2022-10-16T01:28:50;12.85;;;4.95;;
34433;SDS011;34290;48.562;13.384;2022-10-16T01:31:22;12.45;;;4.80;;
34433;SDS011;34290;48.562;13.384;2022-10-16T01:33:56;16.67;;;4.80;;
34433;SDS011;34290;48.562;13.384;2022-10-16T01:36:28;15.73;;;4.70;;
34433;SDS011;34290;48.562;13.384;2022-10-16T01:39:01;20.33;;;4.03;;
34433;SDS011;34290;48.562;13.384;2022-10-16T01:41:30;18.73;;;4.95;;
34433;SDS011;34290;48.562;13.384;2022-10-16T01:44:02;18.47;;;4.10;;
34433;SDS011;34290;48.562;13.384;2022-10-16T01:46:33;41.95;;;5.43;;
34433;SDS011;34290;48.562;13.384;2022-10-16T01:49:03;33.20;;;4.70;;
34433;SDS011;34290;48.562;13.384;2022-10-16T01:51:31;20.75;;;4.53;;
34433;SDS011;34290;48.562;13.384;2022-10-16T01:54:00;24.07;;;4.37;;
34433;SDS011;34290;48.562;13.384;2022-10-16T01:56:30;22.10;;;4.05;;
34433;SDS011;34290;48.562;13.384;2022-10-16T01:58:59;75.88;;;7.85;;
34433;SDS011;34290;48.562;13.384;2022-10-16T02:01:35;29.98;;;4.88;;
34433;SDS011;34290;48.562;13.384;2022-10-16T02:04:07;23.58;;;4.78;;
34433;SDS011;34290;48.562;13.384;2022-10-16T02:06:38;57.97;;;6.40;;
34433;SDS011;34290;48.562;13.384;2022-10-16T02:09:05;99.25;;;6.72;;
34433;SDS011;34290;48.562;13.384;2022-10-16T02:11:32;85.47;;;6.47;;
34433;SDS011;34290;48.562;13.384;2022-10-16T02:14:00;33.72;;;4.68;;
34433;SDS011;34290;48.562;13.384;2022-10-16T02:16:34;20.17;;;4.30;;
34433;SDS011;34290;48.562;13.384;2022-10-16T02:19:03;14.63;;;4.10;;
34433;SDS011;34290;48.562;13.384;2022-10-16T02:21:33;52.70;;;5.30;;
34433;SDS011;34290;48.562;13.384;2022-10-16T02:24:08;23.77;;;5.55;;
34433;SDS011;34290;48.562;13.384;2022-10-16T02:26:42;11.33;;;3.43;;
34433;SDS011;34290;48.562;13.384;2022-10-16T02:29:16;5.77;;;3.60;;
34433;SDS011;34290;48.562;13.384;2022-10-16T02:31:50;16.60;;;4.00;;
34433;SDS011;34290;48.562;13.384;2022-10-16T02:34:21;7.57;;;3.80;;
34433;SDS011;34290;48.562;13.384;2022-10-16T02:36:51;8.32;;;3.60;;
34433;SDS011;34290;48.562;13.384;2022-10-16T02:39:19;5.30;;;3.43;;
34433;SDS011;34290;48.562;13.384;2022-10-16T02:41:47;8.23;;;3.30;;
34433;SDS011;34290;48.562;13.384;2022-10-16T02:44:16;29.70;;;6.18;;
34433;SDS011;34290;48.562;13.384;2022-10-16T02:46:42;13.40;;;3.97;;
34433;SDS011;34290;48.562;13.384;2022-10-16T02:49:09;12.87;;;4.03;;
34433;SDS011;34290;48.562;13.384;2022-10-16T02:51:36;10.37;;;3.73;;
34433;SDS011;34290;48.562;13.384;2022-10-16T02:54:03;9.53;;;4.40;;
34433;SDS011;34290;48.562;13.384;2022-10-16T02:56:31;10.97;;;3.80;;
34433;SDS011;34290;48.562;13.384;2022-10-16T02:58:58;10.13;;;4.43;;
34433;SDS011;34290;48.562;13.384;2022-10-16T03:01:26;10.23;;;3.90;;
34433;SDS011;34290;48.562;13.384;2022-10-16T03:03:53;8.60;;;4.20;;
34433;SDS011;34290;48.562;13.384;2022-10-16T03:06:20;10.83;;;4.40;;
34433;SDS011;34290;48.562;13.384;2022-10-16T03:08:47;7.18;;;3.53;;
34433;SDS011;34290;48.562;13.384;2022-10-16T03:11:14;7.67;;;3.20;;
34433;SDS011;34290;48.562;13.384;2022-10-16T03:13:41;10.17;;;3.60;;
34433;SDS011;34290;48.562;13.384;2022-10-16T03:16:08;6.33;;;3.30;;
34433;SDS011;34290;48.562;13.384;2022-10-16T03:18:37;9.57;;;4.07;;
34433;SDS011;34290;48.562;13.384;2022-10-16T03:21:04;23.03;;;4.50;;
34433;SDS011;34290;48.562;13.384;2022-10-16T03:23:31;11.77;;;4.07;;
34433;SDS011;34290;48.562;13.384;2022-10-16T03:25:57;10.83;;;3.43;;
34433;SDS011;34290;48.562;13.384;2022-10-16T03:28:25;17.50;;;2.93;;
34433;SDS011;34290;48.562;13.384;2022-10-16T03:30:52;10.90;;;2.85;;
34433;SDS011;34290;48.562;13.384;2022-10-16T03:33:19;62.40;;;5.23;;
34433;SDS011;34290;48.562;13.384;2022-10-16T03:35:51;11.63;;;3.47;;
34433;SDS011;34290;48.562;13.384;2022-10-16T03:38:19;28.43;;;3.43;;
34433;SDS011;34290;48.562;13.384;2022-10-16T03:40:46;287.23;;;13.77;;
34433;SDS011;34290;48.562;13.384;2022-10-16T03:43:13;30.00;;;3.47;;
34433;SDS011;34290;48.562;13.384;2022-10-16T03:45:40;23.80;;;3.73;;
34433;SDS011;34290;48.562;13.384;2022-10-16T03:48:07;24.73;;;3.43;;
34433;SDS011;34290;48.562;13.384;2022-10-16T03:50:34;23.13;;;4.40;;
34433;SDS011;34290;48.562;13.384;2022-10-16T03:53:03;11.70;;;3.27;;
34433;SDS011;34290;48.562;13.384;2022-10-16T03:55:30;15.32;;;4.65;;
34433;SDS011;34290;48.562;13.384;2022-10-16T03:57:57;11.03;;;3.27;;
34433;SDS011;34290;48.562;13.384;2022-10-16T04:00:24;151.27;;;8.60;;
34433;SDS011;34290;48.562;13.384;2022-10-16T04:02:51;161.90;;;8.93;;
34433;SDS011;34290;48.562;13.384;2022-10-16T04:05:18;36.07;;;3.70;;
34433;SDS011;34290;48.562;13.384;2022-10-16T04:07:45;11.07;;;3.08;;
34433;SDS011;34290;48.562;13.384;2022-10-16T04:10:13;9.00;;;3.30;;
34433;SDS011;34290;48.562;13.384;2022-10-16T04:12:40;20.13;;;3.50;;
34433;SDS011;34290;48.562;13.384;2022-10-16T04:15:08;12.63;;;3.47;;
34433;SDS011;34290;48.562;13.384;2022-10-16T04:17:35;5.33;;;3.10;;
34433;SDS011;34290;48.562;13.384;2022-10-16T04:20:02;8.07;;;3.20;;
34433;SDS011;34290;48.562;13.384;2022-10-16T04:22:30;18.05;;;3.92;;
34433;SDS011;34290;48.562;13.384;2022-10-16T04:24:57;16.98;;;3.15;;
34433;SDS011;34290;48.562;13.384;2022-10-16T04:27:25;7.10;;;3.13;;
34433;SDS011;34290;48.562;13.384;2022-10-16T04:29:53;4.10;;;2.93;;
34433;SDS011;34290;48.562;13.384;2022-10-16T04:32:20;16.40;;;4.00;;
34433;SDS011;34290;48.562;13.384;2022-10-16T04:34:47;19.93;;;5.43;;
34433;SDS011;34290;48.562;13.384;2022-10-16T04:37:14;14.70;;;4.90;;
34433;SDS011;34290;48.562;13.384;2022-10-16T04:39:41;10.13;;;4.00;;
34433;SDS011;34290;48.562;13.384;2022-10-16T04:42:08;6.70;;;4.20;;
34433;SDS011;34290;48.562;13.384;2022-10-16T04:44:37;6.23;;;3.70;;
34433;SDS011;34290;48.562;13.384;2022-10-16T04:47:04;10.00;;;4.10;;
34433;SDS011;34290;48.562;13.384;2022-10-16T04:49:30;14.73;;;3.50;;
34433;SDS011;34290;48.562;13.384;2022-10-16T04:51:57;16.47;;;3.40;;
34433;SDS011;34290;48.562;13.384;2022-10-16T04:54:24;147.57;;;10.47;;
34433;SDS011;34290;48.562;13.384;2022-10-16T04:56:51;36.67;;;4.00;;
34433;SDS011;34290;48.562;13.384;2022-10-16T04:59:19;30.70;;;3.30;;
34433;SDS011;34290;48.562;13.384;2022-10-16T05:01:47;24.40;;;3.57;;
34433;SDS011;34290;48.562;13.384;2022-10-16T05:04:14;14.60;;;3.20;;
34433;SDS011;34290;48.562;13.384;2022-10-16T05:06:41;9.87;;;3.70;;
34433;SDS011;34290;48.562;13.384;2022-10-16T05:09:12;8.30;;;4.07;;
34433;SDS011;34290;48.562;13.384;2022-10-16T05:11:39;8.87;;;4.23;;
34433;SDS011;34290;48.562;13.384;2022-10-16T05:14:06;11.03;;;4.50;;
34433;SDS011;34290;48.562;13.384;2022-10-16T05:16:33;11.43;;;6.20;;
34433;SDS011;34290;48.562;13.384;2022-10-16T05:19:01;40.00;;;6.60;;
34433;SDS011;34290;48.562;13.384;2022-10-16T05:21:28;9.23;;;4.73;;
34433;SDS011;34290;48.562;13.384;2022-10-16T05:23:55;6.93;;;4.30;;
34433;SDS011;34290;48.562;13.384;2022-10-16T05:26:22;26.97;;;5.90;;
34433;SDS011;34290;48.562;13.384;2022-10-16T05:28:49;6.87;;;4.20;;
34433;SDS011;34290;48.562;13.384;2022-10-16T05:31:16;9.87;;;4.03;;
34433;SDS011;34290;48.562;13.384;2022-10-16T05:33:43;17.87;;;4.80;;
34433;SDS011;34290;48.562;13.384;2022-10-16T05:36:12;7.33;;;4.27;;
34433;SDS011;34290;48.562;13.384;2022-10-16T05:38:39;11.27;;;3.93;;
34433;SDS011;34290;48.562;13.384;2022-10-16T05:41:06;13.80;;;4.40;;
34433;SDS011;34290;48.562;13.384;2022-10-16T05:43:33;34.03;;;5.00;;
34433;SDS011;34290;48.562;13.384;2022-10-16T05:46:00;21.00;;;9.30;;
34433;SDS011;34290;48.562;13.384;2022-10-16T05:48:30;7.93;;;4.30;;
34433;SDS011;34290;48.562;13.384;2022-10-16T05:50:58;13.10;;;4.43;;
34433;SDS011;34290;48.562;13.384;2022-10-16T05:53:28;10.53;;;4.20;;
34433;SDS011;34290;48.562;13.384;2022-10-16T05:55:57;17.80;;;3.73;;
34433;SDS011;34290;48.562;13.384;2022-10-16T05:58:24;116.03;;;6.47;;
34433;SDS011;34290;48.562;13.384;2022-10-16T06:00:55;54.67;;;5.60;;
34433;SDS011;34290;48.562;13.384;2022-10-16T06:03:22;15.20;;;3.60;;
34433;SDS011;34290;48.562;13.384;2022-10-16T06:05:50;12.57;;;3.70;;
34433;SDS011;34290;48.562;13.384;2022-10-16T06:08:17;9.07;;;3.80;;
34433;SDS011;34290;48.562;13.384;2022-10-16T06:10:47;11.40;;;3.70;;
34433;SDS011;34290;48.562;13.384;2022-10-16T06:13:14;17.70;;;3.90;;
34433;SDS011;34290;48.562;13.384;2022-10-16T06:15:42;14.10;;;4.00;;
34433;SDS011;34290;48.562;13.384;2022-10-16T06:18:09;7.23;;;4.00;;
34433;SDS011;34290;48.562;13.384;2022-10-16T06:20:36;6.77;;;4.20;;
34433;SDS011;34290;48.562;13.384;2022-10-16T06:23:03;12.50;;;4.50;;
34433;SDS011;34290;48.562;13.384;2022-10-16T06:25:30;9.07;;;4.63;;
34433;SDS011;34290;48.562;13.384;2022-10-16T06:27:59;8.87;;;4.37;;
34433;SDS011;34290;48.562;13.384;2022-10-16T06:30:26;9.30;;;3.90;;
34433;SDS011;34290;48.562;13.384;2022-10-16T06:32:53;6.85;;;3.53;;
34433;SDS011;34290;48.562;13.384;2022-10-16T06:35:20;5.43;;;3.50;;
34433;SDS011;34290;48.562;13.384;2022-10-16T06:37:47;5.47;;;3.42;;
34433;SDS011;34290;48.562;13.384;2022-10-16T06:40:17;10.98;;;3.47;;
34433;SDS011;34290;48.562;13.384;2022-10-16T06:42:47;10.73;;;4.88;;
34433;SDS011;34290;48.562;13.384;2022-10-16T06:45:15;7.60;;;4.72;;
34433;SDS011;34290;48.562;13.384;2022-10-16T06:47:42;17.98;;;5.78;;
34433;SDS011;34290;48.562;13.384;2022-10-16T06:50:10;10.88;;;5.13;;
34433;SDS011;34290;48.562;13.384;2022-10-16T06:52:38;523.03;;;29.60;;
34433;SDS011;34290;48.562;13.384;2022-10-16T06:55:05;292.45;;;14.35;;
34433;SDS011;34290;48.562;13.384;2022-10-16T06:57:32;113.55;;;7.63;;
34433;SDS011;34290;48.562;13.384;2022-10-16T06:59:59;27.77;;;5.95;;
34433;SDS011;34290;48.562;13.384;2022-10-16T07:02:28;12.57;;;5.43;;
34433;SDS011;34290;48.562;13.384;2022-10-16T07:04:55;21.52;;;5.85;;
34433;SDS011;34290;48.562;13.384;2022-10-16T07:07:22;13.07;;;5.32;;
34433;SDS011;34290;48.562;13.384;2022-10-16T07:09:49;11.63;;;6.15;;
34433;SDS011;34290;48.562;13.384;2022-10-16T07:12:16;14.30;;;6.63;;
34433;SDS011;34290;48.562;13.384;2022-10-16T07:14:43;31.67;;;7.10;;
34433;SDS011;34290;48.562;13.384;2022-10-16T07:17:11;21.10;;;6.90;;
34433;SDS011;34290;48.562;13.384;2022-10-16T07:19:39;53.88;;;7.90;;
34433;SDS011;34290;48.562;13.384;2022-10-16T07:22:06;20.30;;;6.40;;
34433;SDS011;34290;48.562;13.384;2022-10-16T07:24:33;34.60;;;7.78;;
34433;SDS011;34290;48.562;13.384;2022-10-16T07:27:00;35.05;;;7.55;;
34433;SDS011;34290;48.562;13.384;2022-10-16T07:29:27;55.67;;;8.35;;
34433;SDS011;34290;48.562;13.384;2022-10-16T07:31:54;28.70;;;7.85;;
34433;SDS011;34290;48.562;13.384;2022-10-16T07:34:21;33.13;;;7.78;;
34433;SDS011;34290;48.562;13.384;2022-10-16T07:36:49;46.08;;;7.80;;
34433;SDS011;34290;48.562;13.384;2022-10-16T07:39:17;21.48;;;7.47;;
34433;SDS011;34290;48.562;13.384;2022-10-16T07:41:44;26.13;;;7.93;;
34433;SDS011;34290;48.562;13.384;2022-10-16T07:44:12;20.60;;;8.63;;
34433;SDS011;34290;48.562;13.384;2022-10-16T07:46:39;15.80;;;7.53;;
34433;SDS011;34290;48.562;13.384;2022-10-16T07:49:06;17.77;;;8.63;;
34433;SDS011;34290;48.562;13.384;2022-10-16T07:51:33;22.30;;;9.23;;
34433;SDS011;34290;48.562;13.384;2022-10-16T07:54:01;22.48;;;9.43;;
34433;SDS011;34290;48.562;13.384;2022-10-16T07:56:28;21.98;;;9.10;;
34433;SDS011;34290;48.562;13.384;2022-10-16T07:58:57;27.58;;;11.68;;
34433;SDS011;34290;48.562;13.384;2022-10-16T08:01:24;21.40;;;9.90;;
34433;SDS011;34290;48.562;13.384;2022-10-16T08:03:51;20.00;;;9.88;;
34433;SDS011;34290;48.562;13.384;2022-10-16T08:06:19;24.05;;;10.68;;
34433;SDS011;34290;48.562;13.384;2022-10-16T08:08:47;24.67;;;10.85;;
34433;SDS011;34290;48.562;13.384;2022-10-16T08:11:16;25.27;;;11.02;;
34433;SDS011;34290;48.562;13.384;2022-10-16T08:13:43;29.90;;;11.65;;
34433;SDS011;34290;48.562;13.384;2022-10-16T08:16:12;29.35;;;12.38;;
34433;SDS011;34290;48.562;13.384;2022-10-16T08:18:40;23.02;;;11.05;;
34433;SDS011;34290;48.562;13.384;2022-10-16T08:21:08;21.52;;;10.05;;
34433;SDS011;34290;48.562;13.384;2022-10-16T08:23:39;25.50;;;11.30;;
34433;SDS011;34290;48.562;13.384;2022-10-16T08:26:08;24.52;;;11.00;;
34433;SDS011;34290;48.562;13.384;2022-10-16T08:28:36;22.63;;;10.40;;
34433;SDS011;34290;48.562;13.384;2022-10-16T08:31:04;23.90;;;10.90;;
34433;SDS011;34290;48.562;13.384;2022-10-16T08:33:32;19.92;;;9.43;;
34433;SDS011;34290;48.562;13.384;2022-10-16T08:36:01;20.90;;;9.38;;
34433;SDS011;34290;48.562;13.384;2022-10-16T08:38:28;21.13;;;9.00;;
34433;SDS011;34290;48.562;13.384;2022-10-16T08:40:56;16.98;;;8.48;;
34433;SDS011;34290;48.562;13.384;2022-10-16T08:43:33;20.70;;;8.57;;
34433;SDS011;34290;48.562;13.384;2022-10-16T08:46:19;17.05;;;8.18;;
34433;SDS011;34290;48.562;13.384;2022-10-16T08:48:54;22.10;;;8.63;;
34433;SDS011;34290;48.562;13.384;2022-10-16T08:51:24;17.10;;;7.90;;
34433;SDS011;34290;48.562;13.384;2022-10-16T08:53:55;15.45;;;7.78;;
34433;SDS011;34290;48.562;13.384;2022-10-16T08:56:23;17.65;;;8.30;;
34433;SDS011;34290;48.562;13.384;2022-10-16T08:58:57;23.10;;;8.20;;
34433;SDS011;34290;48.562;13.384;2022-10-16T09:01:25;19.55;;;8.13;;
34433;SDS011;34290;48.562;13.384;2022-10-16T09:07:17;16.48;;;7.65;;
34433;SDS011;34290;48.562;13.384;2022-10-16T09:09:53;13.13;;;6.85;;
34433;SDS011;34290;48.562;13.384;2022-10-16T09:12:28;15.82;;;6.47;;
34433;SDS011;34290;48.562;13.384;2022-10-16T09:15:07;14.40;;;6.80;;
34433;SDS011;34290;48.562;13.384;2022-10-16T09:17:45;18.02;;;7.40;;
34433;SDS011;34290;48.562;13.384;2022-10-16T09:20:27;14.63;;;6.82;;
34433;SDS011;34290;48.562;13.384;2022-10-16T09:23:07;11.93;;;6.47;;
34433;SDS011;34290;48.562;13.384;2022-10-16T09:25:42;15.80;;;6.55;;
34433;SDS011;34290;48.562;13.384;2022-10-16T09:28:10;16.35;;;6.28;;
34433;SDS011;34290;48.562;13.384;2022-10-16T09:30:39;12.90;;;6.40;;
34433;SDS011;34290;48.562;13.384;2022-10-16T09:33:06;18.30;;;6.22;;
34433;SDS011;34290;48.562;13.384;2022-10-16T09:35:36;15.65;;;5.57;;
34433;SDS011;34290;48.562;13.384;2022-10-16T09:38:05;11.98;;;5.70;;
34433;SDS011;34290;48.562;13.384;2022-10-16T09:40:33;10.55;;;5.32;;
34433;SDS011;34290;48.562;13.384;2022-10-16T09:43:03;12.63;;;5.45;;
34433;SDS011;34290;48.562;13.384;2022-10-16T09:45:42;10.88;;;5.00;;
34433;SDS011;34290;48.562;13.384;2022-10-16T09:48:19;11.80;;;4.82;;
34433;SDS011;34290;48.562;13.384;2022-10-16T09:50:55;10.60;;;5.03;;
34433;SDS011;34290;48.562;13.384;2022-10-16T09:53:22;10.80;;;5.13;;
34433;SDS011;34290;48.562;13.384;2022-10-16T09:56:04;8.13;;;4.60;;
34433;SDS011;34290;48.562;13.384;2022-10-16T09:58:31;11.00;;;4.88;;
34433;SDS011;34290;48.562;13.384;2022-10-16T10:01:00;10.05;;;5.25;;
34433;SDS011;34290;48.562;13.384;2022-10-16T10:03:35;12.95;;;5.10;;
34433;SDS011;34290;48.562;13.384;2022-10-16T10:06:06;25.33;;;5.15;;
34433;SDS011;34290;48.562;13.384;2022-10-16T10:08:52;8.52;;;4.47;;
34433;SDS011;34290;48.562;13.384;2022-10-16T10:11:37;10.00;;;4.95;;
34433;SDS011;34290;48.562;13.384;2022-10-16T10:14:13;10.93;;;4.50;;
34433;SDS011;34290;48.562;13.384;2022-10-16T10:16:48;10.57;;;5.18;;
34433;SDS011;34290;48.562;13.384;2022-10-16T10:19:16;11.15;;;5.50;;
34433;SDS011;34290;48.562;13.384;2022-10-16T10:21:44;13.35;;;4.47;;
34433;SDS011;34290;48.562;13.384;2022-10-16T10:24:13;10.48;;;4.07;;
34433;SDS011;34290;48.562;13.384;2022-10-16T10:26:42;8.98;;;4.68;;
34433;SDS011;34290;48.562;13.384;2022-10-16T10:29:23;9.07;;;3.97;;
34433;SDS011;34290;48.562;13.384;2022-10-16T10:32:05;10.07;;;3.90;;
34433;SDS011;34290;48.562;13.384;2022-10-16T10:34:56;14.00;;;4.35;;
34433;SDS011;34290;48.562;13.384;2022-10-16T10:37:40;8.98;;;4.30;;
34433;SDS011;34290;48.562;13.384;2022-10-16T10:40:22;7.53;;;3.75;;
34433;SDS011;34290;48.562;13.384;2022-10-16T10:42:57;8.77;;;3.90;;
34433;SDS011;34290;48.562;13.384;2022-10-16T10:45:33;8.05;;;4.68;;
34433;SDS011;34290;48.562;13.384;2022-10-16T10:48:17;9.63;;;3.80;;
34433;SDS011;34290;48.562;13.384;2022-10-16T10:50:52;8.60;;;3.80;;
34433;SDS011;34290;48.562;13.384;2022-10-16T10:53:34;6.68;;;3.90;;
34433;SDS011;34290;48.562;13.384;2022-10-16T10:56:12;8.95;;;3.78;;
34433;SDS011;34290;48.562;13.384;2022-10-16T10:58:53;5.70;;;3.33;;
34433;SDS011;34290;48.562;13.384;2022-10-16T11:01:30;12.70;;;3.85;;
34433;SDS011;34290;48.562;13.384;2022-10-16T11:04:20;7.32;;;3.05;;
34433;SDS011;34290;48.562;13.384;2022-10-16T11:06:59;7.28;;;3.25;;
34433;SDS011;34290;48.562;13.384;2022-10-16T11:09:30;5.82;;;3.08;;
34433;SDS011;34290;48.562;13.384;2022-10-16T11:12:01;5.70;;;2.90;;
34433;SDS011;34290;48.562;13.384;2022-10-16T11:14:36;6.30;;;2.70;;
34433;SDS011;34290;48.562;13.384;2022-10-16T11:17:08;5.18;;;2.72;;
34433;SDS011;34290;48.562;13.384;2022-10-16T11:19:41;4.85;;;3.10;;
34433;SDS011;34290;48.562;13.384;2022-10-16T11:22:17;6.45;;;2.95;;
34433;SDS011;34290;48.562;13.384;2022-10-16T11:24:51;7.85;;;2.90;;
34433;SDS011;34290;48.562;13.384;2022-10-16T11:27:33;4.78;;;2.97;;
34433;SDS011;34290;48.562;13.384;2022-10-16T11:30:03;5.75;;;2.78;;
34433;SDS011;34290;48.562;13.384;2022-10-16T11:32:47;7.10;;;2.65;;
34433;SDS011;34290;48.562;13.384;2022-10-16T11:35:25;6.38;;;3.08;;
34433;SDS011;34290;48.562;13.384;2022-10-16T11:38:07;5.32;;;3.03;;
34433;SDS011;34290;48.562;13.384;2022-10-16T11:40:41;5.93;;;3.05;;
34433;SDS011;34290;48.562;13.384;2022-10-16T11:43:14;5.50;;;3.13;;
34433;SDS011;34290;48.562;13.384;2022-10-16T11:45:46;5.22;;;3.00;;
34433;SDS011;34290;48.562;13.384;2022-10-16T11:48:18;7.47;;;3.47;;
34433;SDS011;34290;48.562;13.384;2022-10-16T11:50:54;5.43;;;3.17;;
34433;SDS011;34290;48.562;13.384;2022-10-16T11:53:29;5.72;;;3.08;;
34433;SDS011;34290;48.562;13.384;2022-10-16T11:56:05;6.60;;;3.60;;
34433;SDS011;34290;48.562;13.384;2022-10-16T11:58:33;7.22;;;3.35;;
34433;SDS011;34290;48.562;13.384;2022-10-16T12:01:12;25.58;;;4.10;;
34433;SDS011;34290;48.562;13.384;2022-10-16T12:03:46;5.68;;;3.47;;
34433;SDS011;34290;48.562;13.384;2022-10-16T12:06:25;4.82;;;3.00;;
34433;SDS011;34290;48.562;13.384;2022-10-16T12:08:57;5.00;;;2.90;;
34433;SDS011;34290;48.562;13.384;2022-10-16T12:11:33;3.88;;;2.50;;
34433;SDS011;34290;48.562;13.384;2022-10-16T12:17:02;5.22;;;2.83;;
34433;SDS011;34290;48.562;13.384;2022-10-16T12:19:32;4.05;;;2.65;;
34433;SDS011;34290;48.562;13.384;2022-10-16T12:22:01;4.20;;;2.55;;
34433;SDS011;34290;48.562;13.384;2022-10-16T12:24:31;14.27;;;3.08;;
34433;SDS011;34290;48.562;13.384;2022-10-16T12:27:01;7.97;;;2.70;;
34433;SDS011;34290;48.562;13.384;2022-10-16T12:29:32;6.05;;;3.03;;
34433;SDS011;34290;48.562;13.384;2022-10-16T12:32:01;3.63;;;2.33;;
34433;SDS011;34290;48.562;13.384;2022-10-16T12:34:32;10.05;;;2.50;;
34433;SDS011;34290;48.562;13.384;2022-10-16T12:37:10;5.72;;;2.53;;
34433;SDS011;34290;48.562;13.384;2022-10-16T12:39:40;5.35;;;3.17;;
34433;SDS011;34290;48.562;13.384;2022-10-16T12:42:19;4.25;;;2.47;;
34433;SDS011;34290;48.562;13.384;2022-10-16T12:44:58;5.47;;;2.22;;
34433;SDS011;34290;48.562;13.384;2022-10-16T12:47:35;5.63;;;2.20;;
34433;SDS011;34290;48.562;13.384;2022-10-16T12:52:51;8.63;;;2.55;;
34433;SDS011;34290;48.562;13.384;2022-10-16T12:55:19;6.82;;;2.55;;
34433;SDS011;34290;48.562;13.384;2022-10-16T12:57:57;4.28;;;2.10;;
34433;SDS011;34290;48.562;13.384;2022-10-16T13:00:44;3.88;;;1.98;;
34433;SDS011;34290;48.562;13.384;2022-10-16T13:06:17;6.07;;;2.13;;
34433;SDS011;34290;48.562;13.384;2022-10-16T13:09:02;3.42;;;2.10;;
34433;SDS011;34290;48.562;13.384;2022-10-16T13:11:49;6.75;;;2.47;;
34433;SDS011;34290;48.562;13.384;2022-10-16T13:14:30;3.58;;;2.05;;
34433;SDS011;34290;48.562;13.384;2022-10-16T13:17:09;5.05;;;2.30;;
34433;SDS011;34290;48.562;13.384;2022-10-16T13:19:44;6.43;;;1.90;;
34433;SDS011;34290;48.562;13.384;2022-10-16T13:22:20;4.55;;;2.00;;
34433;SDS011;34290;48.562;13.384;2022-10-16T13:24:59;3.45;;;2.05;;
34433;SDS011;34290;48.562;13.384;2022-10-16T13:27:36;4.75;;;1.80;;
34433;SDS011;34290;48.562;13.384;2022-10-16T13:30:13;3.65;;;2.30;;
34433;SDS011;34290;48.562;13.384;2022-10-16T13:32:44;5.75;;;1.90;;
34433;SDS011;34290;48.562;13.384;2022-10-16T13:35:20;11.07;;;2.28;;
34433;SDS011;34290;48.562;13.384;2022-10-16T13:37:49;4.57;;;2.15;;
34433;SDS011;34290;48.562;13.384;2022-10-16T13:40:21;5.78;;;2.20;;
34433;SDS011;34290;48.562;13.384;2022-10-16T13:42:50;4.85;;;2.15;;
34433;SDS011;34290;48.562;13.384;2022-10-16T13:45:19;3.85;;;2.22;;
34433;SDS011;34290;48.562;13.384;2022-10-16T13:47:48;6.45;;;2.22;;
34433;SDS011;34290;48.562;13.384;2022-10-16T13:50:18;3.75;;;2.13;;
34433;SDS011;34290;48.562;13.384;2022-10-16T13:52:45;4.75;;;2.20;;
34433;SDS011;34290;48.562;13.384;2022-10-16T13:55:12;5.53;;;2.20;;
34433;SDS011;34290;48.562;13.384;2022-10-16T13:57:41;3.30;;;1.88;;
34433;SDS011;34290;48.562;13.384;2022-10-16T14:00:19;7.82;;;2.00;;
34433;SDS011;34290;48.562;13.384;2022-10-16T14:02:50;6.13;;;1.92;;
34433;SDS011;34290;48.562;13.384;2022-10-16T14:05:20;9.20;;;2.42;;
34433;SDS011;34290;48.562;13.384;2022-10-16T14:07:48;4.57;;;2.10;;
34433;SDS011;34290;48.562;13.384;2022-10-16T14:10:22;3.75;;;2.00;;
34433;SDS011;34290;48.562;13.384;2022-10-16T14:12:55;3.03;;;2.10;;
34433;SDS011;34290;48.562;13.384;2022-10-16T14:15:24;4.38;;;2.10;;
34433;SDS011;34290;48.562;13.384;2022-10-16T14:17:52;2.40;;;1.67;;
34433;SDS011;34290;48.562;13.384;2022-10-16T14:20:20;4.50;;;1.88;;
34433;SDS011;34290;48.562;13.384;2022-10-16T14:22:57;4.75;;;2.10;;
34433;SDS011;34290;48.562;13.384;2022-10-16T14:25:27;8.35;;;2.15;;
34433;SDS011;34290;48.562;13.384;2022-10-16T14:28:01;5.00;;;2.33;;
34433;SDS011;34290;48.562;13.384;2022-10-16T14:30:32;5.25;;;2.58;;
34433;SDS011;34290;48.562;13.384;2022-10-16T14:33:02;2.90;;;1.90;;
34433;SDS011;34290;48.562;13.384;2022-10-16T14:35:30;59.92;;;4.03;;
34433;SDS011;34290;48.562;13.384;2022-10-16T14:37:59;6.60;;;2.35;;
34433;SDS011;34290;48.562;13.384;2022-10-16T14:40:29;6.50;;;2.65;;
34433;SDS011;34290;48.562;13.384;2022-10-16T14:42:57;6.43;;;2.25;;
34433;SDS011;34290;48.562;13.384;2022-10-16T14:45:32;4.50;;;2.17;;
34433;SDS011;34290;48.562;13.384;2022-10-16T14:48:01;4.18;;;2.22;;
34433;SDS011;34290;48.562;13.384;2022-10-16T14:50:31;5.72;;;2.22;;
34433;SDS011;34290;48.562;13.384;2022-10-16T14:52:58;13.65;;;2.35;;
34433;SDS011;34290;48.562;13.384;2022-10-16T14:55:25;6.78;;;2.40;;
34433;SDS011;34290;48.562;13.384;2022-10-16T14:57:55;4.53;;;2.60;;